SCVD/ZAL METAR and TAF weather

Enter ICAO airport designator
Station Type Date Time Source
SCVD METAR 2019/08/17 11:00 UTC NOAA

SCVD 171100Z AUTO VRB02KT 8000 DZ FEW026 BKN035 OVC040 08/08 Q1014


Station Type Date Time Source
SCVD Decoded METAR 2019/08/17 11:00 UTC NOAA

Station name not available
Aug 17, 2019 - 07:00 AM EDT / 2019.08.17 1100 UTC
Wind: Variable at 2 MPH (2 KT):0
Visibility: 4 mile(s):0
Sky conditions: overcast
Weather: drizzle
Temperature: 46 F (8 C)
Dew Point: 46 F (8 C)
Relative Humidity: 100%
Pressure (altimeter): 29.94 in. Hg (1014 hPa)
ob: SCVD 171100Z AUTO VRB02KT 8000 DZ FEW026 BKN035 OVC040 08/08 Q1014
cycle: 11

Station Type Date Time Source
SCVD TAF 2019/08/16 12:00 UTC NOAA

TAF SCVD 161047Z 1612/1700 03006KT 5000 -RA BKN012 OVC020 TN08/1612Z TX12/1618Z
BECMG 1615/1617 8000 -SHRA BKN020 OVC035

Example: see airport list